sensor_id;sensor_type;location;lat;lon;timestamp;P1;durP1;ratioP1;P2;durP2;ratioP2
19049;SDS011;9657;45.940;12.840;2023-04-24T00:01:12;6.18;;;4.93;;
19049;SDS011;9657;45.940;12.840;2023-04-24T00:03:40;5.68;;;5.18;;
19049;SDS011;9657;45.940;12.840;2023-04-24T00:06:07;9.32;;;5.55;;
19049;SDS011;9657;45.940;12.840;2023-04-24T00:08:34;6.93;;;5.60;;
19049;SDS011;9657;45.940;12.840;2023-04-24T00:11:01;6.95;;;5.35;;
19049;SDS011;9657;45.940;12.840;2023-04-24T00:13:28;6.03;;;5.45;;
19049;SDS011;9657;45.940;12.840;2023-04-24T00:15:55;6.95;;;6.15;;
19049;SDS011;9657;45.940;12.840;2023-04-24T00:18:24;6.55;;;5.38;;
19049;SDS011;9657;45.940;12.840;2023-04-24T00:20:51;6.68;;;5.00;;
19049;SDS011;9657;45.940;12.840;2023-04-24T00:23:18;6.53;;;5.85;;
19049;SDS011;9657;45.940;12.840;2023-04-24T00:25:45;6.05;;;5.45;;
19049;SDS011;9657;45.940;12.840;2023-04-24T00:28:12;6.60;;;6.00;;
19049;SDS011;9657;45.940;12.840;2023-04-24T00:30:39;5.95;;;5.35;;
19049;SDS011;9657;45.940;12.840;2023-04-24T00:33:06;6.10;;;5.50;;
19049;SDS011;9657;45.940;12.840;2023-04-24T00:35:35;6.20;;;5.60;;
19049;SDS011;9657;45.940;12.840;2023-04-24T00:38:02;5.85;;;5.25;;
19049;SDS011;9657;45.940;12.840;2023-04-24T00:40:29;7.82;;;5.25;;
19049;SDS011;9657;45.940;12.840;2023-04-24T00:42:56;6.15;;;5.55;;
19049;SDS011;9657;45.940;12.840;2023-04-24T00:45:23;6.22;;;5.63;;
19049;SDS011;9657;45.940;12.840;2023-04-24T00:47:51;5.85;;;5.30;;
19049;SDS011;9657;45.940;12.840;2023-04-24T00:50:20;7.93;;;5.57;;
19049;SDS011;9657;45.940;12.840;2023-04-24T00:52:49;5.45;;;4.95;;
19049;SDS011;9657;45.940;12.840;2023-04-24T00:55:16;6.10;;;5.50;;
19049;SDS011;9657;45.940;12.840;2023-04-24T00:57:44;5.82;;;5.20;;
19049;SDS011;9657;45.940;12.840;2023-04-24T01:02:59;6.25;;;5.65;;
19049;SDS011;9657;45.940;12.840;2023-04-24T01:05:48;7.05;;;5.55;;
19049;SDS011;9657;45.940;12.840;2023-04-24T01:08:17;5.93;;;5.32;;
19049;SDS011;9657;45.940;12.840;2023-04-24T01:10:45;6.68;;;6.03;;
19049;SDS011;9657;45.940;12.840;2023-04-24T01:13:14;6.13;;;5.53;;
19049;SDS011;9657;45.940;12.840;2023-04-24T01:15:41;6.53;;;5.78;;
19049;SDS011;9657;45.940;12.840;2023-04-24T01:18:08;6.32;;;5.72;;
19049;SDS011;9657;45.940;12.840;2023-04-24T01:20:35;6.35;;;5.75;;
19049;SDS011;9657;45.940;12.840;2023-04-24T01:23:06;7.35;;;5.78;;
19049;SDS011;9657;45.940;12.840;2023-04-24T01:25:34;6.13;;;5.53;;
19049;SDS011;9657;45.940;12.840;2023-04-24T01:28:01;6.55;;;5.82;;
19049;SDS011;9657;45.940;12.840;2023-04-24T01:30:29;6.13;;;5.55;;
19049;SDS011;9657;45.940;12.840;2023-04-24T01:32:58;6.55;;;5.95;;
19049;SDS011;9657;45.940;12.840;2023-04-24T01:35:25;6.00;;;5.40;;
19049;SDS011;9657;45.940;12.840;2023-04-24T01:37:52;6.43;;;5.20;;
19049;SDS011;9657;45.940;12.840;2023-04-24T01:40:21;6.03;;;5.43;;
19049;SDS011;9657;45.940;12.840;2023-04-24T01:42:48;6.32;;;5.72;;
19049;SDS011;9657;45.940;12.840;2023-04-24T01:45:15;6.40;;;5.80;;
19049;SDS011;9657;45.940;12.840;2023-04-24T01:47:42;6.30;;;5.70;;
19049;SDS011;9657;45.940;12.840;2023-04-24T01:50:11;6.45;;;5.40;;
19049;SDS011;9657;45.940;12.840;2023-04-24T01:52:38;6.93;;;6.25;;
19049;SDS011;9657;45.940;12.840;2023-04-24T01:55:06;7.38;;;6.05;;
19049;SDS011;9657;45.940;12.840;2023-04-24T01:57:35;5.95;;;5.45;;
19049;SDS011;9657;45.940;12.840;2023-04-24T02:00:02;5.93;;;5.38;;
19049;SDS011;9657;45.940;12.840;2023-04-24T02:02:30;6.30;;;5.60;;
19049;SDS011;9657;45.940;12.840;2023-04-24T02:04:58;6.10;;;5.57;;
19049;SDS011;9657;45.940;12.840;2023-04-24T02:07:25;7.25;;;5.97;;
19049;SDS011;9657;45.940;12.840;2023-04-24T02:09:52;7.03;;;6.40;;
19049;SDS011;9657;45.940;12.840;2023-04-24T02:12:20;6.90;;;6.20;;
19049;SDS011;9657;45.940;12.840;2023-04-24T02:14:48;6.70;;;6.00;;
19049;SDS011;9657;45.940;12.840;2023-04-24T02:17:15;6.40;;;5.80;;
19049;SDS011;9657;45.940;12.840;2023-04-24T02:19:44;8.27;;;6.72;;
19049;SDS011;9657;45.940;12.840;2023-04-24T02:22:11;6.68;;;5.75;;
19049;SDS011;9657;45.940;12.840;2023-04-24T02:24:38;6.40;;;5.60;;
19049;SDS011;9657;45.940;12.840;2023-04-24T02:27:05;6.65;;;6.05;;
19049;SDS011;9657;45.940;12.840;2023-04-24T02:29:32;7.53;;;6.20;;
19049;SDS011;9657;45.940;12.840;2023-04-24T02:32:01;6.55;;;5.80;;
19049;SDS011;9657;45.940;12.840;2023-04-24T02:34:28;6.75;;;5.88;;
19049;SDS011;9657;45.940;12.840;2023-04-24T02:36:55;6.18;;;5.65;;
19049;SDS011;9657;45.940;12.840;2023-04-24T02:39:22;6.88;;;6.28;;
19049;SDS011;9657;45.940;12.840;2023-04-24T02:41:49;7.18;;;6.20;;
19049;SDS011;9657;45.940;12.840;2023-04-24T02:44:16;5.97;;;5.47;;
19049;SDS011;9657;45.940;12.840;2023-04-24T02:46:43;6.32;;;5.70;;
19049;SDS011;9657;45.940;12.840;2023-04-24T02:49:11;6.57;;;5.97;;
19049;SDS011;9657;45.940;12.840;2023-04-24T02:51:38;5.43;;;4.97;;
19049;SDS011;9657;45.940;12.840;2023-04-24T02:54:06;6.10;;;5.38;;
19049;SDS011;9657;45.940;12.840;2023-04-24T02:56:35;7.43;;;5.97;;
19049;SDS011;9657;45.940;12.840;2023-04-24T02:59:02;6.60;;;6.00;;
19049;SDS011;9657;45.940;12.840;2023-04-24T03:01:29;6.93;;;6.25;;
19049;SDS011;9657;45.940;12.840;2023-04-24T03:03:56;6.40;;;5.82;;
19049;SDS011;9657;45.940;12.840;2023-04-24T03:06:25;6.30;;;5.65;;
19049;SDS011;9657;45.940;12.840;2023-04-24T03:08:53;6.45;;;5.85;;
19049;SDS011;9657;45.940;12.840;2023-04-24T03:11:20;6.65;;;5.97;;
19049;SDS011;9657;45.940;12.840;2023-04-24T03:13:47;6.38;;;5.72;;
19049;SDS011;9657;45.940;12.840;2023-04-24T03:16:14;6.22;;;5.63;;
19049;SDS011;9657;45.940;12.840;2023-04-24T03:18:41;6.80;;;6.10;;
19049;SDS011;9657;45.940;12.840;2023-04-24T03:21:08;6.35;;;5.78;;
19049;SDS011;9657;45.940;12.840;2023-04-24T03:23:36;7.80;;;6.10;;
19049;SDS011;9657;45.940;12.840;2023-04-24T03:26:03;6.63;;;5.93;;
19049;SDS011;9657;45.940;12.840;2023-04-24T03:28:31;7.15;;;5.70;;
19049;SDS011;9657;45.940;12.840;2023-04-24T03:30:58;6.68;;;5.85;;
19049;SDS011;9657;45.940;12.840;2023-04-24T03:33:25;6.30;;;5.70;;
19049;SDS011;9657;45.940;12.840;2023-04-24T03:35:52;6.78;;;6.18;;
19049;SDS011;9657;45.940;12.840;2023-04-24T03:38:19;6.63;;;5.82;;
19049;SDS011;9657;45.940;12.840;2023-04-24T03:40:47;6.05;;;5.45;;
19049;SDS011;9657;45.940;12.840;2023-04-24T03:43:14;6.38;;;5.80;;
19049;SDS011;9657;45.940;12.840;2023-04-24T03:45:41;6.45;;;5.82;;
19049;SDS011;9657;45.940;12.840;2023-04-24T03:48:09;6.05;;;5.47;;
19049;SDS011;9657;45.940;12.840;2023-04-24T03:50:36;6.32;;;5.72;;
19049;SDS011;9657;45.940;12.840;2023-04-24T03:53:03;6.70;;;6.00;;
19049;SDS011;9657;45.940;12.840;2023-04-24T03:55:30;6.45;;;5.50;;
19049;SDS011;9657;45.940;12.840;2023-04-24T03:57:58;6.03;;;5.43;;
19049;SDS011;9657;45.940;12.840;2023-04-24T04:00:25;6.18;;;5.57;;
19049;SDS011;9657;45.940;12.840;2023-04-24T04:02:52;6.25;;;5.65;;
19049;SDS011;9657;45.940;12.840;2023-04-24T04:05:20;6.55;;;5.97;;
19049;SDS011;9657;45.940;12.840;2023-04-24T04:07:47;5.55;;;5.05;;
19049;SDS011;9657;45.940;12.840;2023-04-24T04:10:14;7.38;;;5.93;;
19049;SDS011;9657;45.940;12.840;2023-04-24T04:12:42;9.90;;;5.97;;
19049;SDS011;9657;45.940;12.840;2023-04-24T04:15:11;6.10;;;5.60;;
19049;SDS011;9657;45.940;12.840;2023-04-24T04:17:38;6.18;;;5.68;;
19049;SDS011;9657;45.940;12.840;2023-04-24T04:20:05;6.40;;;5.80;;
19049;SDS011;9657;45.940;12.840;2023-04-24T04:22:35;6.10;;;5.60;;
19049;SDS011;9657;45.940;12.840;2023-04-24T04:25:02;6.40;;;5.75;;
19049;SDS011;9657;45.940;12.840;2023-04-24T04:27:29;6.90;;;5.82;;
19049;SDS011;9657;45.940;12.840;2023-04-24T04:29:57;8.18;;;5.75;;
19049;SDS011;9657;45.940;12.840;2023-04-24T04:32:27;6.68;;;5.97;;
19049;SDS011;9657;45.940;12.840;2023-04-24T04:34:54;6.45;;;5.70;;
19049;SDS011;9657;45.940;12.840;2023-04-24T04:37:21;6.55;;;5.88;;
19049;SDS011;9657;45.940;12.840;2023-04-24T04:39:48;6.88;;;6.05;;
19049;SDS011;9657;45.940;12.840;2023-04-24T04:42:15;6.07;;;5.47;;
19049;SDS011;9657;45.940;12.840;2023-04-24T04:44:44;6.03;;;5.43;;
19049;SDS011;9657;45.940;12.840;2023-04-24T04:47:11;7.28;;;5.82;;
19049;SDS011;9657;45.940;12.840;2023-04-24T04:49:39;6.15;;;5.50;;
19049;SDS011;9657;45.940;12.840;2023-04-24T04:52:08;7.30;;;5.90;;
19049;SDS011;9657;45.940;12.840;2023-04-24T04:54:35;6.30;;;5.70;;
19049;SDS011;9657;45.940;12.840;2023-04-24T04:57:02;6.53;;;5.82;;
19049;SDS011;9657;45.940;12.840;2023-04-24T04:59:29;6.55;;;5.85;;
19049;SDS011;9657;45.940;12.840;2023-04-24T05:01:56;6.03;;;5.40;;
19049;SDS011;9657;45.940;12.840;2023-04-24T05:04:23;6.32;;;5.55;;
19049;SDS011;9657;45.940;12.840;2023-04-24T05:06:51;6.65;;;5.50;;
19049;SDS011;9657;45.940;12.840;2023-04-24T05:09:19;7.78;;;5.35;;
19049;SDS011;9657;45.940;12.840;2023-04-24T05:11:46;5.97;;;5.43;;
19049;SDS011;9657;45.940;12.840;2023-04-24T05:14:13;6.18;;;5.32;;
19049;SDS011;9657;45.940;12.840;2023-04-24T05:16:40;5.70;;;5.03;;
19049;SDS011;9657;45.940;12.840;2023-04-24T05:19:07;5.90;;;5.13;;
19049;SDS011;9657;45.940;12.840;2023-04-24T05:21:34;6.10;;;5.22;;
19049;SDS011;9657;45.940;12.840;2023-04-24T05:24:02;8.75;;;5.90;;
19049;SDS011;9657;45.940;12.840;2023-04-24T05:26:29;9.40;;;6.53;;
19049;SDS011;9657;45.940;12.840;2023-04-24T05:28:57;5.90;;;5.40;;
19049;SDS011;9657;45.940;12.840;2023-04-24T05:31:24;5.75;;;5.22;;
19049;SDS011;9657;45.940;12.840;2023-04-24T05:33:51;6.20;;;5.03;;
19049;SDS011;9657;45.940;12.840;2023-04-24T05:36:18;8.35;;;5.40;;
19049;SDS011;9657;45.940;12.840;2023-04-24T05:38:45;7.47;;;5.25;;
19049;SDS011;9657;45.940;12.840;2023-04-24T05:41:13;8.38;;;5.50;;
19049;SDS011;9657;45.940;12.840;2023-04-24T05:43:40;6.28;;;5.57;;
19049;SDS011;9657;45.940;12.840;2023-04-24T05:46:07;6.60;;;5.50;;
19049;SDS011;9657;45.940;12.840;2023-04-24T05:48:34;7.07;;;5.07;;
19049;SDS011;9657;45.940;12.840;2023-04-24T05:51:01;7.85;;;5.78;;
19049;SDS011;9657;45.940;12.840;2023-04-24T05:53:28;5.60;;;4.87;;
19049;SDS011;9657;45.940;12.840;2023-04-24T05:55:55;7.60;;;6.40;;
19049;SDS011;9657;45.940;12.840;2023-04-24T05:58:24;7.80;;;5.70;;
19049;SDS011;9657;45.940;12.840;2023-04-24T06:00:50;7.87;;;5.30;;
19049;SDS011;9657;45.940;12.840;2023-04-24T06:03:18;7.43;;;5.13;;
19049;SDS011;9657;45.940;12.840;2023-04-24T06:05:45;6.50;;;5.17;;
19049;SDS011;9657;45.940;12.840;2023-04-24T06:08:12;6.80;;;5.40;;
19049;SDS011;9657;45.940;12.840;2023-04-24T06:10:39;8.40;;;5.43;;
19049;SDS011;9657;45.940;12.840;2023-04-24T06:13:06;7.43;;;5.40;;
19049;SDS011;9657;45.940;12.840;2023-04-24T06:15:34;6.30;;;5.27;;
19049;SDS011;9657;45.940;12.840;2023-04-24T06:18:02;8.17;;;5.03;;
19049;SDS011;9657;45.940;12.840;2023-04-24T06:20:29;5.57;;;4.70;;
19049;SDS011;9657;45.940;12.840;2023-04-24T06:22:56;6.60;;;5.65;;
19049;SDS011;9657;45.940;12.840;2023-04-24T06:25:24;6.57;;;5.20;;
19049;SDS011;9657;45.940;12.840;2023-04-24T06:27:51;6.78;;;5.20;;
19049;SDS011;9657;45.940;12.840;2023-04-24T06:30:18;6.27;;;5.07;;
19049;SDS011;9657;45.940;12.840;2023-04-24T06:32:47;6.15;;;5.40;;
19049;SDS011;9657;45.940;12.840;2023-04-24T06:35:14;7.15;;;5.18;;
19049;SDS011;9657;45.940;12.840;2023-04-24T06:37:41;6.57;;;4.45;;
19049;SDS011;9657;45.940;12.840;2023-04-24T06:40:09;5.00;;;4.55;;
19049;SDS011;9657;45.940;12.840;2023-04-24T06:42:37;5.97;;;5.18;;
19049;SDS011;9657;45.940;12.840;2023-04-24T06:45:04;6.38;;;5.15;;
19049;SDS011;9657;45.940;12.840;2023-04-24T06:47:32;6.18;;;5.00;;
19049;SDS011;9657;45.940;12.840;2023-04-24T06:50:00;5.95;;;5.18;;
19049;SDS011;9657;45.940;12.840;2023-04-24T06:52:27;5.40;;;4.77;;
19049;SDS011;9657;45.940;12.840;2023-04-24T06:54:59;5.47;;;4.97;;
19049;SDS011;9657;45.940;12.840;2023-04-24T06:57:27;5.70;;;5.20;;
19049;SDS011;9657;45.940;12.840;2023-04-24T06:59:54;6.57;;;5.00;;
19049;SDS011;9657;45.940;12.840;2023-04-24T07:02:21;5.93;;;4.83;;
19049;SDS011;9657;45.940;12.840;2023-04-24T07:04:48;6.20;;;4.97;;
19049;SDS011;9657;45.940;12.840;2023-04-24T07:07:17;7.18;;;5.10;;
19049;SDS011;9657;45.940;12.840;2023-04-24T07:09:44;5.47;;;4.93;;
19049;SDS011;9657;45.940;12.840;2023-04-24T07:12:11;6.47;;;5.13;;
19049;SDS011;9657;45.940;12.840;2023-04-24T07:14:38;5.93;;;5.13;;
19049;SDS011;9657;45.940;12.840;2023-04-24T07:17:05;7.33;;;4.97;;
19049;SDS011;9657;45.940;12.840;2023-04-24T07:19:33;5.50;;;4.90;;
19049;SDS011;9657;45.940;12.840;2023-04-24T07:22:00;8.03;;;5.50;;
19049;SDS011;9657;45.940;12.840;2023-04-24T07:24:29;6.93;;;4.80;;
19049;SDS011;9657;45.940;12.840;2023-04-24T07:26:57;6.20;;;4.87;;
19049;SDS011;9657;45.940;12.840;2023-04-24T07:29:26;6.57;;;4.53;;
19049;SDS011;9657;45.940;12.840;2023-04-24T07:31:53;6.57;;;5.63;;
19049;SDS011;9657;45.940;12.840;2023-04-24T07:34:21;6.00;;;4.90;;
19049;SDS011;9657;45.940;12.840;2023-04-24T07:36:48;5.18;;;4.75;;
19049;SDS011;9657;45.940;12.840;2023-04-24T07:39:15;8.85;;;5.40;;
19049;SDS011;9657;45.940;12.840;2023-04-24T07:41:44;6.40;;;5.30;;
19049;SDS011;9657;45.940;12.840;2023-04-24T07:44:11;5.90;;;4.90;;
19049;SDS011;9657;45.940;12.840;2023-04-24T07:46:38;5.13;;;4.63;;
19049;SDS011;9657;45.940;12.840;2023-04-24T07:49:05;7.13;;;5.15;;
19049;SDS011;9657;45.940;12.840;2023-04-24T07:51:32;5.50;;;4.38;;
19049;SDS011;9657;45.940;12.840;2023-04-24T07:54:03;5.18;;;4.53;;
19049;SDS011;9657;45.940;12.840;2023-04-24T07:56:31;9.63;;;4.88;;
19049;SDS011;9657;45.940;12.840;2023-04-24T07:58:59;4.97;;;4.47;;
19049;SDS011;9657;45.940;12.840;2023-04-24T08:01:27;8.45;;;4.88;;
19049;SDS011;9657;45.940;12.840;2023-04-24T08:03:54;5.95;;;4.97;;
19049;SDS011;9657;45.940;12.840;2023-04-24T08:06:21;6.38;;;4.72;;
19049;SDS011;9657;45.940;12.840;2023-04-24T08:08:49;5.03;;;3.97;;
19049;SDS011;9657;45.940;12.840;2023-04-24T08:11:16;5.63;;;5.03;;
19049;SDS011;9657;45.940;12.840;2023-04-24T08:13:43;5.90;;;4.55;;
19049;SDS011;9657;45.940;12.840;2023-04-24T08:16:12;7.10;;;4.70;;
19049;SDS011;9657;45.940;12.840;2023-04-24T08:18:39;6.30;;;5.03;;
19049;SDS011;9657;45.940;12.840;2023-04-24T08:21:06;4.63;;;4.20;;
19049;SDS011;9657;45.940;12.840;2023-04-24T08:23:33;7.43;;;4.83;;
19049;SDS011;9657;45.940;12.840;2023-04-24T08:26:00;6.43;;;4.80;;
19049;SDS011;9657;45.940;12.840;2023-04-24T08:28:28;6.47;;;4.70;;
19049;SDS011;9657;45.940;12.840;2023-04-24T08:30:55;5.55;;;4.28;;
19049;SDS011;9657;45.940;12.840;2023-04-24T08:33:23;5.18;;;4.20;;
19049;SDS011;9657;45.940;12.840;2023-04-24T08:35:50;5.95;;;4.60;;
19049;SDS011;9657;45.940;12.840;2023-04-24T08:38:18;5.57;;;4.15;;
19049;SDS011;9657;45.940;12.840;2023-04-24T08:40:45;6.72;;;5.05;;
19049;SDS011;9657;45.940;12.840;2023-04-24T08:43:14;6.22;;;4.50;;
19049;SDS011;9657;45.940;12.840;2023-04-24T08:45:42;8.63;;;4.93;;
19049;SDS011;9657;45.940;12.840;2023-04-24T08:48:09;6.20;;;4.63;;
19049;SDS011;9657;45.940;12.840;2023-04-24T08:50:38;5.70;;;4.40;;
19049;SDS011;9657;45.940;12.840;2023-04-24T08:53:07;5.07;;;4.25;;
19049;SDS011;9657;45.940;12.840;2023-04-24T08:55:35;6.60;;;4.70;;
19049;SDS011;9657;45.940;12.840;2023-04-24T08:58:03;4.95;;;4.45;;
19049;SDS011;9657;45.940;12.840;2023-04-24T09:00:30;5.05;;;4.43;;
19049;SDS011;9657;45.940;12.840;2023-04-24T09:03:00;6.45;;;4.78;;
19049;SDS011;9657;45.940;12.840;2023-04-24T09:05:27;7.57;;;5.32;;
19049;SDS011;9657;45.940;12.840;2023-04-24T09:07:56;7.88;;;5.13;;
19049;SDS011;9657;45.940;12.840;2023-04-24T09:10:24;5.18;;;4.55;;
19049;SDS011;9657;45.940;12.840;2023-04-24T09:12:51;6.05;;;5.10;;
19049;SDS011;9657;45.940;12.840;2023-04-24T09:15:19;8.88;;;4.78;;
19049;SDS011;9657;45.940;12.840;2023-04-24T09:17:47;5.47;;;4.53;;
19049;SDS011;9657;45.940;12.840;2023-04-24T09:20:14;7.60;;;5.50;;
19049;SDS011;9657;45.940;12.840;2023-04-24T09:22:41;6.50;;;5.10;;
19049;SDS011;9657;45.940;12.840;2023-04-24T09:25:10;5.53;;;4.75;;
19049;SDS011;9657;45.940;12.840;2023-04-24T09:27:41;7.72;;;5.45;;
19049;SDS011;9657;45.940;12.840;2023-04-24T09:30:09;7.97;;;4.85;;
19049;SDS011;9657;45.940;12.840;2023-04-24T09:32:37;6.40;;;5.10;;
19049;SDS011;9657;45.940;12.840;2023-04-24T09:35:05;7.60;;;4.60;;
19049;SDS011;9657;45.940;12.840;2023-04-24T09:37:37;7.30;;;5.07;;
19049;SDS011;9657;45.940;12.840;2023-04-24T09:40:08;5.20;;;4.70;;
19049;SDS011;9657;45.940;12.840;2023-04-24T09:42:37;7.37;;;5.23;;
19049;SDS011;9657;45.940;12.840;2023-04-24T09:45:08;7.77;;;5.47;;
19049;SDS011;9657;45.940;12.840;2023-04-24T09:47:36;6.60;;;5.63;;
19049;SDS011;9657;45.940;12.840;2023-04-24T09:50:10;6.43;;;5.33;;
19049;SDS011;9657;45.940;12.840;2023-04-24T09:52:42;6.80;;;5.30;;
19049;SDS011;9657;45.940;12.840;2023-04-24T09:55:18;7.28;;;5.10;;
19049;SDS011;9657;45.940;12.840;2023-04-24T09:57:49;6.35;;;5.15;;
19049;SDS011;9657;45.940;12.840;2023-04-24T10:00:18;7.80;;;4.90;;
19049;SDS011;9657;45.940;12.840;2023-04-24T10:02:51;7.95;;;4.65;;
19049;SDS011;9657;45.940;12.840;2023-04-24T10:05:22;7.00;;;5.35;;
19049;SDS011;9657;45.940;12.840;2023-04-24T10:07:51;8.77;;;5.10;;
19049;SDS011;9657;45.940;12.840;2023-04-24T10:10:23;6.43;;;5.07;;
19049;SDS011;9657;45.940;12.840;2023-04-24T10:12:50;8.10;;;5.30;;
19049;SDS011;9657;45.940;12.840;2023-04-24T10:15:18;6.30;;;4.80;;
19049;SDS011;9657;45.940;12.840;2023-04-24T10:17:46;6.33;;;4.80;;
19049;SDS011;9657;45.940;12.840;2023-04-24T10:20:17;6.73;;;5.33;;
19049;SDS011;9657;45.940;12.840;2023-04-24T10:22:46;7.32;;;5.28;;
19049;SDS011;9657;45.940;12.840;2023-04-24T10:25:16;5.25;;;3.95;;
19049;SDS011;9657;45.940;12.840;2023-04-24T10:27:46;5.80;;;4.70;;
19049;SDS011;9657;45.940;12.840;2023-04-24T10:30:14;5.00;;;4.60;;
19049;SDS011;9657;45.940;12.840;2023-04-24T10:32:42;7.38;;;5.03;;
19049;SDS011;9657;45.940;12.840;2023-04-24T10:35:10;6.57;;;5.22;;
19049;SDS011;9657;45.940;12.840;2023-04-24T10:37:40;6.32;;;4.47;;
19049;SDS011;9657;45.940;12.840;2023-04-24T10:40:09;7.28;;;5.50;;
19049;SDS011;9657;45.940;12.840;2023-04-24T10:42:39;7.47;;;5.40;;
19049;SDS011;9657;45.940;12.840;2023-04-24T10:45:17;6.18;;;5.20;;
19049;SDS011;9657;45.940;12.840;2023-04-24T10:47:53;6.78;;;5.45;;
19049;SDS011;9657;45.940;12.840;2023-04-24T10:50:25;4.82;;;4.35;;
19049;SDS011;9657;45.940;12.840;2023-04-24T10:52:54;5.90;;;5.35;;
19049;SDS011;9657;45.940;12.840;2023-04-24T10:55:42;8.57;;;5.38;;
19049;SDS011;9657;45.940;12.840;2023-04-24T10:58:10;6.65;;;5.13;;
19049;SDS011;9657;45.940;12.840;2023-04-24T11:00:39;6.25;;;5.25;;
19049;SDS011;9657;45.940;12.840;2023-04-24T11:03:22;5.50;;;4.88;;
19049;SDS011;9657;45.940;12.840;2023-04-24T11:05:55;5.70;;;4.90;;
19049;SDS011;9657;45.940;12.840;2023-04-24T11:08:27;4.85;;;4.35;;
19049;SDS011;9657;45.940;12.840;2023-04-24T11:10:57;6.10;;;5.00;;
19049;SDS011;9657;45.940;12.840;2023-04-24T11:16:35;5.70;;;4.23;;
19049;SDS011;9657;45.940;12.840;2023-04-24T11:19:10;7.43;;;5.05;;
19049;SDS011;9657;45.940;12.840;2023-04-24T11:21:46;6.18;;;4.72;;
19049;SDS011;9657;45.940;12.840;2023-04-24T11:24:30;5.57;;;4.90;;
19049;SDS011;9657;45.940;12.840;2023-04-24T11:26:59;5.10;;;4.40;;
19049;SDS011;9657;45.940;12.840;2023-04-24T11:29:38;6.53;;;4.28;;
19049;SDS011;9657;45.940;12.840;2023-04-24T11:32:18;7.57;;;5.30;;
19049;SDS011;9657;45.940;12.840;2023-04-24T11:34:52;6.40;;;4.85;;
19049;SDS011;9657;45.940;12.840;2023-04-24T11:37:21;5.93;;;4.35;;
19049;SDS011;9657;45.940;12.840;2023-04-24T11:39:50;5.18;;;4.40;;
19049;SDS011;9657;45.940;12.840;2023-04-24T11:42:18;6.18;;;5.20;;
19049;SDS011;9657;45.940;12.840;2023-04-24T11:44:47;5.85;;;4.85;;
19049;SDS011;9657;45.940;12.840;2023-04-24T11:47:15;4.90;;;4.40;;
19049;SDS011;9657;45.940;12.840;2023-04-24T11:49:43;5.22;;;4.50;;
19049;SDS011;9657;45.940;12.840;2023-04-24T11:52:11;6.80;;;4.60;;
19049;SDS011;9657;45.940;12.840;2023-04-24T11:54:46;5.35;;;4.20;;
19049;SDS011;9657;45.940;12.840;2023-04-24T11:57:14;5.20;;;4.70;;
19049;SDS011;9657;45.940;12.840;2023-04-24T11:59:42;4.27;;;3.87;;
19049;SDS011;9657;45.940;12.840;2023-04-24T12:02:09;5.27;;;4.57;;
19049;SDS011;9657;45.940;12.840;2023-04-24T12:04:48;4.30;;;3.90;;
19049;SDS011;9657;45.940;12.840;2023-04-24T12:07:15;7.10;;;4.55;;
19049;SDS011;9657;45.940;12.840;2023-04-24T12:09:43;5.40;;;4.13;;
19049;SDS011;9657;45.940;12.840;2023-04-24T12:12:11;5.03;;;4.43;;
19049;SDS011;9657;45.940;12.840;2023-04-24T12:14:47;5.13;;;4.00;;
19049;SDS011;9657;45.940;12.840;2023-04-24T12:17:15;5.00;;;3.85;;
19049;SDS011;9657;45.940;12.840;2023-04-24T12:19:45;4.68;;;4.10;;
19049;SDS011;9657;45.940;12.840;2023-04-24T12:22:15;4.43;;;3.78;;
19049;SDS011;9657;45.940;12.840;2023-04-24T12:24:58;5.25;;;4.07;;
19049;SDS011;9657;45.940;12.840;2023-04-24T12:27:28;6.60;;;4.20;;
19049;SDS011;9657;45.940;12.840;2023-04-24T12:29:57;4.78;;;4.25;;
19049;SDS011;9657;45.940;12.840;2023-04-24T12:32:25;4.95;;;4.20;;
19049;SDS011;9657;45.940;12.840;2023-04-24T12:34:54;4.20;;;3.78;;
19049;SDS011;9657;45.940;12.840;2023-04-24T12:37:22;4.93;;;4.43;;
19049;SDS011;9657;45.940;12.840;2023-04-24T12:40:00;5.13;;;3.92;;
19049;SDS011;9657;45.940;12.840;2023-04-24T12:42:28;4.60;;;3.90;;
19049;SDS011;9657;45.940;12.840;2023-04-24T12:44:56;5.93;;;3.97;;
19049;SDS011;9657;45.940;12.840;2023-04-24T12:47:25;5.07;;;4.10;;
19049;SDS011;9657;45.940;12.840;2023-04-24T12:49:53;6.13;;;4.17;;
19049;SDS011;9657;45.940;12.840;2023-04-24T12:52:21;4.93;;;4.17;;
19049;SDS011;9657;45.940;12.840;2023-04-24T12:54:48;6.10;;;4.03;;
19049;SDS011;9657;45.940;12.840;2023-04-24T12:57:16;5.97;;;4.53;;
19049;SDS011;9657;45.940;12.840;2023-04-24T12:59:43;6.10;;;4.10;;
19049;SDS011;9657;45.940;12.840;2023-04-24T13:02:10;4.63;;;4.10;;
19049;SDS011;9657;45.940;12.840;2023-04-24T13:04:37;6.30;;;4.30;;
19049;SDS011;9657;45.940;12.840;2023-04-24T13:07:06;5.43;;;4.33;;
19049;SDS011;9657;45.940;12.840;2023-04-24T13:09:34;5.87;;;4.00;;
19049;SDS011;9657;45.940;12.840;2023-04-24T13:12:01;5.03;;;3.87;;
19049;SDS011;9657;45.940;12.840;2023-04-24T13:14:30;8.67;;;4.30;;
19049;SDS011;9657;45.940;12.840;2023-04-24T13:16:57;4.63;;;3.30;;
19049;SDS011;9657;45.940;12.840;2023-04-24T13:19:24;4.27;;;3.80;;
19049;SDS011;9657;45.940;12.840;2023-04-24T13:21:52;5.47;;;4.20;;
19049;SDS011;9657;45.940;12.840;2023-04-24T13:24:23;4.93;;;3.93;;
19049;SDS011;9657;45.940;12.840;2023-04-24T13:26:51;4.90;;;3.90;;
19049;SDS011;9657;45.940;12.840;2023-04-24T13:29:18;5.13;;;4.17;;
19049;SDS011;9657;45.940;12.840;2023-04-24T13:31:45;5.97;;;3.90;;
19049;SDS011;9657;45.940;12.840;2023-04-24T13:34:12;4.77;;;3.40;;
19049;SDS011;9657;45.940;12.840;2023-04-24T13:36:40;4.67;;;3.93;;
19049;SDS011;9657;45.940;12.840;2023-04-24T13:39:07;3.77;;;3.37;;
19049;SDS011;9657;45.940;12.840;2023-04-24T13:41:35;5.60;;;3.90;;
19049;SDS011;9657;45.940;12.840;2023-04-24T13:44:02;5.47;;;3.50;;
19049;SDS011;9657;45.940;12.840;2023-04-24T13:46:30;5.93;;;3.73;;
19049;SDS011;9657;45.940;12.840;2023-04-24T13:48:57;4.97;;;3.90;;
19049;SDS011;9657;45.940;12.840;2023-04-24T13:51:25;4.70;;;3.70;;
19049;SDS011;9657;45.940;12.840;2023-04-24T13:53:53;3.40;;;3.10;;
19049;SDS011;9657;45.940;12.840;2023-04-24T13:56:20;3.67;;;3.23;;
19049;SDS011;9657;45.940;12.840;2023-04-24T13:58:48;3.77;;;3.47;;
19049;SDS011;9657;45.940;12.840;2023-04-24T14:01:16;3.70;;;3.23;;
19049;SDS011;9657;45.940;12.840;2023-04-24T14:03:43;3.60;;;3.30;;
19049;SDS011;9657;45.940;12.840;2023-04-24T14:06:10;3.20;;;2.90;;
19049;SDS011;9657;45.940;12.840;2023-04-24T14:08:37;4.30;;;3.13;;
19049;SDS011;9657;45.940;12.840;2023-04-24T14:11:04;4.97;;;3.47;;
19049;SDS011;9657;45.940;12.840;2023-04-24T14:13:31;3.87;;;3.10;;
19049;SDS011;9657;45.940;12.840;2023-04-24T14:16:00;3.63;;;3.23;;
19049;SDS011;9657;45.940;12.840;2023-04-24T14:18:27;3.67;;;3.00;;
19049;SDS011;9657;45.940;12.840;2023-04-24T14:20:54;3.87;;;3.43;;
19049;SDS011;9657;45.940;12.840;2023-04-24T14:23:22;6.00;;;3.37;;
19049;SDS011;9657;45.940;12.840;2023-04-24T14:25:49;4.80;;;3.40;;
19049;SDS011;9657;45.940;12.840;2023-04-24T14:28:17;5.37;;;4.13;;
19049;SDS011;9657;45.940;12.840;2023-04-24T14:30:45;3.97;;;3.30;;
19049;SDS011;9657;45.940;12.840;2023-04-24T14:33:13;4.10;;;3.37;;
19049;SDS011;9657;45.940;12.840;2023-04-24T14:35:41;3.23;;;2.60;;
19049;SDS011;9657;45.940;12.840;2023-04-24T14:38:08;3.50;;;2.97;;
19049;SDS011;9657;45.940;12.840;2023-04-24T14:40:36;4.00;;;2.90;;
19049;SDS011;9657;45.940;12.840;2023-04-24T14:43:03;3.53;;;3.20;;
19049;SDS011;9657;45.940;12.840;2023-04-24T14:45:30;3.75;;;2.83;;
19049;SDS011;9657;45.940;12.840;2023-04-24T14:47:57;3.63;;;2.87;;
19049;SDS011;9657;45.940;12.840;2023-04-24T14:50:26;4.37;;;3.07;;
19049;SDS011;9657;45.940;12.840;2023-04-24T14:52:54;3.40;;;2.90;;
19049;SDS011;9657;45.940;12.840;2023-04-24T14:55:22;6.63;;;3.40;;
19049;SDS011;9657;45.940;12.840;2023-04-24T14:57:49;3.70;;;3.10;;
19049;SDS011;9657;45.940;12.840;2023-04-24T15:00:17;3.10;;;2.80;;